Time;durP1;ratioP1;P1;durP2;ratioP2;P2;SDS_P1;SDS_P2;PMS_P1;PMS_P2;Temp;Humidity;BMP_temperature;BMP_pressure;BME280_temperature;BME280_humidity;BME280_pressure;Samples;Min_cycle;Max_cycle;Signal;HPM_P1;HPM_P2
2022/08/20 00:00:43;;;;;;;13.03;6.47;;;23.50;99.90;;;;;;5032073;28;20269;-67
2022/08/20 00:03:17;;;;;;;10.83;6.53;;;23.40;99.90;;;;;;5015851;28;20309;-69
2022/08/20 00:05:53;;;;;;;14.38;6.30;;;23.40;99.90;;;;;;5015873;28;20204;-66
2022/08/20 00:08:24;;;;;;;14.80;6.10;;;23.40;99.90;;;;;;5016032;28;20270;-77
2022/08/20 00:10:54;;;;;;;15.03;6.50;;;23.40;99.90;;;;;;5015865;28;20206;-76
2022/08/20 00:13:27;;;;;;;13.77;6.47;;;23.40;99.90;;;;;;4999804;28;20656;-77
2022/08/20 00:15:55;;;;;;;12.87;6.60;;;23.50;99.90;;;;;;4972501;28;20223;-77
2022/08/20 00:18:22;;;;;;;14.47;6.43;;;23.40;99.90;;;;;;4956508;28;20198;-77
2022/08/20 00:20:51;;;;;;;10.77;6.47;;;23.40;99.90;;;;;;4955645;28;20233;-76
2022/08/20 00:23:19;;;;;;;12.03;6.40;;;23.40;99.90;;;;;;4972127;28;20213;-76
2022/08/20 00:25:46;;;;;;;11.00;6.83;;;23.40;99.90;;;;;;4972347;28;20237;-79
2022/08/20 00:28:14;;;;;;;14.25;6.55;;;23.40;99.90;;;;;;4956549;28;20215;-77
2022/08/20 00:30:43;;;;;;;11.10;6.33;;;23.40;99.90;;;;;;4955955;28;20244;-76
2022/08/20 00:33:17;;;;;;;11.00;6.67;;;23.40;99.90;;;;;;4964257;28;20299;-76
2022/08/20 00:35:48;;;;;;;11.70;6.43;;;23.40;99.90;;;;;;5032454;28;20207;-74
2022/08/20 00:38:15;;;;;;;11.20;6.53;;;23.40;99.90;;;;;;5052860;28;20219;-76
2022/08/20 00:40:51;;;;;;;9.80;6.70;;;23.40;99.90;;;;;;5052487;28;20227;-74
2022/08/20 00:44:02;;;;;;;9.90;6.50;;;23.40;99.90;;;;;;5031594;28;20202;-75
2022/08/20 00:46:30;;;;;;;25.35;6.80;;;23.30;99.90;;;;;;4991361;28;20295;-73
2022/08/20 00:48:58;;;;;;;13.80;6.47;;;23.30;99.90;;;;;;4975318;28;20205;-73
2022/08/20 00:51:37;;;;;;;11.23;6.40;;;23.30;99.90;;;;;;4999149;28;20200;-75
2022/08/20 00:54:18;;;;;;;8.57;6.05;;;23.20;99.90;;;;;;4991109;28;20203;-75
2022/08/20 00:56:49;;;;;;;11.85;6.32;;;23.20;99.90;;;;;;4991429;28;20324;-75
2022/08/20 00:59:24;;;;;;;10.27;6.47;;;23.20;99.90;;;;;;4991303;28;20360;-76
2022/08/20 01:01:51;;;;;;;9.95;6.88;;;23.20;99.90;;;;;;4974815;28;20234;-75
2022/08/20 01:04:23;;;;;;;12.93;6.90;;;23.10;99.90;;;;;;4991238;28;20247;-76
2022/08/20 01:06:51;;;;;;;15.23;6.97;;;23.10;99.90;;;;;;4994729;28;20264;-74
2022/08/20 01:09:18;;;;;;;12.13;6.70;;;23.10;99.90;;;;;;5010987;28;20278;-74
2022/08/20 01:12:06;;;;;;;15.63;6.87;;;23.00;99.90;;;;;;5010846;28;20204;-75
2022/08/20 01:17:07;;;;;;;9.00;6.27;;;22.90;99.90;;;;;;4994250;28;20200;-75
2022/08/20 01:19:43;;;;;;;9.30;6.37;;;22.90;99.90;;;;;;5009737;28;20203;-76
2022/08/20 01:25:20;;;;;;;10.43;6.37;;;22.90;99.90;;;;;;5034621;28;20222;-76
2022/08/20 01:27:51;;;;;;;10.63;6.20;;;22.80;99.90;;;;;;5034584;28;20660;-77
2022/08/20 01:30:26;;;;;;;11.00;6.25;;;22.80;99.90;;;;;;5034793;28;20285;-75
2022/08/20 01:32:53;;;;;;;10.10;6.47;;;22.90;99.90;;;;;;5038555;28;20607;-75
2022/08/20 01:35:23;;;;;;;11.30;6.67;;;22.80;99.90;;;;;;5056727;28;20524;-75
2022/08/20 01:37:50;;;;;;;13.13;6.40;;;22.80;99.90;;;;;;5023761;28;20206;-76
2022/08/20 01:40:28;;;;;;;9.80;6.40;;;22.80;99.90;;;;;;5038747;28;20215;-76
2022/08/20 01:42:55;;;;;;;10.43;6.27;;;22.80;99.90;;;;;;5038399;28;20756;-76
2022/08/20 01:45:27;;;;;;;12.50;6.57;;;22.80;99.90;;;;;;5038790;28;20205;-76
2022/08/20 01:47:57;;;;;;;14.50;6.73;;;22.80;99.90;;;;;;5038564;28;20209;-79
2022/08/20 01:50:27;;;;;;;13.87;6.90;;;22.70;99.90;;;;;;5056939;28;20550;-76
2022/08/20 01:53:19;;;;;;;11.73;6.50;;;22.70;99.90;;;;;;5038891;28;20651;-76
2022/08/20 01:55:46;;;;;;;11.17;6.57;;;22.70;99.90;;;;;;5038351;28;20245;-75
2022/08/20 01:58:13;;;;;;;12.80;7.67;;;22.60;99.90;;;;;;5038538;28;20289;-77
2022/08/20 02:00:40;;;;;;;10.43;6.75;;;22.60;99.90;;;;;;5037955;28;20229;-76
2022/08/20 02:03:08;;;;;;;12.23;7.10;;;22.60;99.90;;;;;;5038024;28;20195;-77
2022/08/20 02:05:35;;;;;;;11.80;7.17;;;22.60;99.90;;;;;;5038277;28;20543;-76
2022/08/20 02:08:03;;;;;;;14.60;6.93;;;22.60;99.90;;;;;;5038087;28;20629;-76
2022/08/20 02:10:31;;;;;;;11.37;6.93;;;22.50;99.90;;;;;;5038124;28;20504;-76
2022/08/20 02:12:59;;;;;;;9.50;6.80;;;22.50;99.90;;;;;;5037721;28;20259;-75
2022/08/20 02:15:27;;;;;;;10.00;6.80;;;22.40;99.90;;;;;;5038163;28;20221;-76
2022/08/20 02:18:09;;;;;;;12.60;6.90;;;22.40;99.90;;;;;;5037766;28;20203;-76
2022/08/20 02:20:38;;;;;;;12.63;7.27;;;22.30;99.90;;;;;;5055494;28;20211;-76
2022/08/20 02:23:06;;;;;;;14.47;6.93;;;22.30;99.90;;;;;;5055508;28;20702;-75
2022/08/20 02:25:37;;;;;;;12.03;7.40;;;22.20;99.90;;;;;;5036818;28;20226;-75
2022/08/20 02:28:08;;;;;;;9.57;6.80;;;22.20;99.90;;;;;;5038069;28;20213;-75
2022/08/20 02:30:42;;;;;;;18.43;7.40;;;22.20;99.90;;;;;;5037779;28;20229;-75
2022/08/20 02:33:13;;;;;;;10.13;7.00;;;22.10;99.90;;;;;;5055521;28;20229;-74
2022/08/20 02:35:42;;;;;;;9.63;7.00;;;22.00;99.90;;;;;;5055391;28;20222;-78
2022/08/20 02:38:10;;;;;;;10.90;6.87;;;22.00;99.90;;;;;;5037648;28;20191;-78
2022/08/20 02:40:38;;;;;;;10.40;7.07;;;22.00;99.90;;;;;;5037872;28;20256;-78
2022/08/20 02:43:05;;;;;;;12.63;7.60;;;22.00;99.90;;;;;;5037317;28;20269;-79
2022/08/20 02:45:38;;;;;;;11.63;6.83;;;21.90;99.90;;;;;;5037145;28;20198;-78
2022/08/20 02:48:05;;;;;;;13.03;7.57;;;22.00;99.90;;;;;;5038667;28;20198;-77
2022/08/20 02:50:32;;;;;;;14.63;7.00;;;21.90;99.90;;;;;;5055368;28;20183;-78
2022/08/20 02:52:59;;;;;;;12.10;7.10;;;21.90;99.90;;;;;;5055610;28;20222;-78
2022/08/20 02:55:26;;;;;;;12.33;7.27;;;21.90;99.90;;;;;;5038887;28;20190;-77
2022/08/20 02:57:56;;;;;;;8.53;7.00;;;21.90;99.90;;;;;;5037393;28;20202;-78
2022/08/20 03:00:27;;;;;;;13.33;7.43;;;21.90;99.90;;;;;;5036541;28;20553;-77
2022/08/20 03:02:54;;;;;;;18.20;7.70;;;21.90;99.90;;;;;;5036899;28;20195;-77
2022/08/20 03:05:21;;;;;;;13.83;7.67;;;21.90;99.90;;;;;;5037364;28;20595;-79
2022/08/20 03:07:55;;;;;;;12.97;7.30;;;21.80;99.90;;;;;;5037306;28;20207;-78
2022/08/20 03:10:34;;;;;;;14.30;7.60;;;21.80;99.90;;;;;;5037272;28;20300;-79
2022/08/20 03:13:01;;;;;;;12.60;7.57;;;21.80;99.90;;;;;;5036682;28;20202;-78
2022/08/20 03:15:31;;;;;;;15.30;8.10;;;21.80;99.90;;;;;;5054683;28;20640;-77
2022/08/20 03:17:58;;;;;;;12.03;7.53;;;21.80;99.90;;;;;;5055065;28;20245;-76
2022/08/20 03:20:26;;;;;;;15.57;8.07;;;21.80;99.90;;;;;;5036628;28;20199;-79
2022/08/20 03:22:53;;;;;;;9.57;7.23;;;21.80;99.90;;;;;;5036716;28;20206;-78
2022/08/20 03:25:20;;;;;;;10.93;7.07;;;21.80;99.90;;;;;;5036626;28;20233;-79
2022/08/20 03:27:48;;;;;;;17.93;7.90;;;21.80;99.90;;;;;;5036200;28;20302;-77
2022/08/20 03:30:21;;;;;;;32.27;10.67;;;21.80;99.90;;;;;;5036351;28;20238;-78
2022/08/20 03:32:49;;;;;;;12.20;7.40;;;21.70;99.90;;;;;;5054124;28;20648;-77
2022/08/20 03:35:17;;;;;;;13.37;7.73;;;21.70;99.90;;;;;;5054493;28;20195;-77
2022/08/20 03:37:44;;;;;;;13.40;7.90;;;21.70;99.90;;;;;;5039521;28;20199;-77
2022/08/20 03:40:37;;;;;;;12.97;7.97;;;21.70;99.90;;;;;;5036472;28;20203;-78
2022/08/20 03:43:07;;;;;;;14.00;7.83;;;21.70;99.90;;;;;;5038452;28;20282;-84
2022/08/20 03:45:37;;;;;;;12.03;7.43;;;21.70;99.90;;;;;;5043063;28;20209;-86
2022/08/20 03:48:06;;;;;;;10.47;7.63;;;21.70;99.90;;;;;;5036919;28;20192;-80
2022/08/20 03:50:33;;;;;;;16.00;7.40;;;21.70;99.90;;;;;;5031582;28;20611;-84
2022/08/20 03:53:00;;;;;;;15.17;7.80;;;21.70;99.90;;;;;;5041864;28;20293;-80
2022/08/20 03:55:30;;;;;;;14.87;8.17;;;21.80;99.90;;;;;;5047906;28;20207;-78
2022/08/20 03:58:01;;;;;;;15.20;7.90;;;21.80;99.90;;;;;;5041464;28;20293;-84
2022/08/20 04:00:35;;;;;;;12.90;8.00;;;21.80;99.90;;;;;;5054731;28;20213;-81
2022/08/20 04:03:03;;;;;;;13.80;8.00;;;21.80;99.90;;;;;;5019963;28;20222;-83
2022/08/20 04:05:32;;;;;;;12.90;8.30;;;21.80;99.90;;;;;;5036104;28;20231;-78
2022/08/20 04:08:01;;;;;;;13.17;8.10;;;21.80;99.90;;;;;;5037387;28;20294;-77
2022/08/20 04:10:30;;;;;;;11.40;7.87;;;21.80;99.90;;;;;;5036076;28;20198;-76
2022/08/20 04:12:58;;;;;;;16.33;7.77;;;21.80;99.90;;;;;;5038047;28;20199;-76
2022/08/20 04:15:25;;;;;;;13.67;7.57;;;21.80;99.90;;;;;;5037555;28;20599;-77
2022/08/20 04:17:52;;;;;;;11.00;7.90;;;21.80;99.90;;;;;;5035615;28;20572;-77
2022/08/20 04:20:22;;;;;;;12.27;7.87;;;21.90;99.90;;;;;;5035535;28;20210;-78
2022/08/20 04:22:51;;;;;;;13.83;7.90;;;21.90;99.90;;;;;;5035594;28;20222;-84
2022/08/20 04:25:30;;;;;;;14.87;7.87;;;22.00;99.90;;;;;;5053518;28;20301;-82
2022/08/20 04:28:04;;;;;;;13.10;8.00;;;22.00;99.90;;;;;;5019972;28;20226;-87
2022/08/20 04:30:32;;;;;;;11.87;7.60;;;22.00;99.90;;;;;;5035864;28;20661;-77
2022/08/20 04:32:59;;;;;;;12.97;8.00;;;22.00;99.90;;;;;;5035923;28;20565;-77
2022/08/20 04:35:28;;;;;;;12.23;7.67;;;22.10;99.90;;;;;;5035457;28;20293;-79
2022/08/20 04:38:07;;;;;;;12.47;7.67;;;22.20;99.90;;;;;;5035581;28;20213;-78
2022/08/20 04:40:56;;;;;;;14.17;8.00;;;22.20;99.90;;;;;;5053123;28;20197;-77
2022/08/20 04:43:36;;;;;;;11.40;7.50;;;22.20;99.90;;;;;;5053265;28;20226;-77
2022/08/20 04:46:08;;;;;;;11.73;8.10;;;22.30;99.90;;;;;;5035308;28;20277;-77
2022/08/20 04:48:37;;;;;;;11.10;7.60;;;22.40;99.90;;;;;;5035436;28;20197;-77
2022/08/20 04:51:07;;;;;;;11.27;8.13;;;22.40;99.90;;;;;;5035596;28;20644;-77
2022/08/20 04:53:35;;;;;;;17.27;7.87;;;22.50;99.90;;;;;;5035369;28;20198;-77
2022/08/20 04:56:02;;;;;;;11.30;7.93;;;22.60;99.90;;;;;;5035115;28;20199;-76
2022/08/20 04:58:33;;;;;;;16.73;8.37;;;22.60;99.90;;;;;;5035187;28;20195;-76
2022/08/20 05:01:05;;;;;;;17.77;8.30;;;22.60;99.90;;;;;;5034654;28;20293;-77
2022/08/20 05:03:33;;;;;;;11.80;7.47;;;22.60;99.90;;;;;;5035088;28;20190;-77
2022/08/20 05:06:00;;;;;;;14.10;7.87;;;22.60;99.90;;;;;;5039601;28;20225;-80
2022/08/20 05:08:28;;;;;;;15.93;8.13;;;22.60;99.90;;;;;;5042787;28;20306;-84
2022/08/20 05:10:56;;;;;;;14.20;7.80;;;22.70;99.90;;;;;;5019351;28;20263;-84
2022/08/20 05:13:44;;;;;;;16.87;8.47;;;22.60;99.90;;;;;;5052235;28;20282;-79
2022/08/20 05:16:11;;;;;;;16.50;8.03;;;22.50;99.90;;;;;;5015626;28;20223;-77
2022/08/20 05:18:38;;;;;;;12.50;8.30;;;22.60;99.90;;;;;;5015716;28;20206;-84
2022/08/20 05:21:05;;;;;;;11.63;7.67;;;22.60;99.90;;;;;;5031926;28;20210;-77
2022/08/20 05:23:41;;;;;;;12.27;8.20;;;22.60;99.90;;;;;;5033963;28;20200;-76
2022/08/20 05:26:10;;;;;;;12.77;9.00;;;22.60;99.90;;;;;;4998726;28;20227;-77
2022/08/20 05:28:38;;;;;;;13.23;7.90;;;22.70;99.90;;;;;;5033580;28;20206;-83
2022/08/20 05:31:27;;;;;;;14.40;8.63;;;22.60;99.90;;;;;;5049107;28;20207;-82
2022/08/20 05:34:08;;;;;;;18.63;9.43;;;22.70;99.90;;;;;;5035187;28;20230;-84
2022/08/20 05:36:52;;;;;;;21.47;9.17;;;22.70;99.90;;;;;;5037956;28;20638;-81
2022/08/20 05:39:21;;;;;;;22.57;9.50;;;22.80;99.90;;;;;;5037846;28;20203;-84
2022/08/20 05:41:49;;;;;;;12.00;7.97;;;22.80;99.90;;;;;;5046162;28;20215;-79
2022/08/20 05:44:18;;;;;;;16.67;8.80;;;22.90;99.90;;;;;;5035442;28;20283;-83
2022/08/20 05:46:46;;;;;;;37.13;11.30;;;22.90;99.90;;;;;;5035495;28;20213;-79
2022/08/20 05:49:18;;;;;;;18.27;8.77;;;22.90;99.90;;;;;;5035000;28;20195;-77
2022/08/20 05:51:47;;;;;;;13.13;8.57;;;22.90;99.90;;;;;;5054172;28;20217;-83
2022/08/20 05:54:14;;;;;;;13.40;8.27;;;23.00;99.90;;;;;;5034809;28;20207;-87
2022/08/20 05:56:41;;;;;;;15.17;9.10;;;23.00;99.90;;;;;;5034582;28;20252;-82
2022/08/20 05:59:08;;;;;;;11.67;8.40;;;23.10;99.90;;;;;;5034691;28;20207;-81
2022/08/20 06:01:37;;;;;;;19.80;9.47;;;23.10;99.90;;;;;;5034455;28;20222;-74
2022/08/20 06:04:23;;;;;;;15.00;8.30;;;23.10;99.90;;;;;;5034313;28;20195;-75
2022/08/20 06:06:53;;;;;;;20.90;9.83;;;23.20;99.90;;;;;;5034750;28;20246;-75
2022/08/20 06:09:23;;;;;;;13.23;8.77;;;23.20;99.90;;;;;;5052363;28;20278;-80
2022/08/20 06:12:00;;;;;;;15.20;8.93;;;23.30;99.90;;;;;;5051274;28;20294;-80
2022/08/20 06:14:27;;;;;;;18.57;9.50;;;23.40;99.90;;;;;;5030841;28;20192;-77
2022/08/20 06:16:54;;;;;;;15.93;9.05;;;23.40;99.90;;;;;;5030119;28;20199;-83
2022/08/20 06:19:23;;;;;;;12.13;8.77;;;23.40;99.90;;;;;;5055349;28;20290;-80
2022/08/20 06:21:52;;;;;;;14.55;8.85;;;23.40;99.90;;;;;;5055026;28;20222;-82
2022/08/20 06:24:20;;;;;;;13.20;9.00;;;23.40;99.90;;;;;;5070766;28;20250;-76
2022/08/20 06:26:53;;;;;;;18.08;9.25;;;23.40;99.90;;;;;;5054140;28;20191;-76
2022/08/20 06:29:20;;;;;;;31.15;12.02;;;23.40;99.90;;;;;;5037353;28;20248;-77
2022/08/20 06:31:47;;;;;;;18.90;9.40;;;23.50;99.90;;;;;;5037019;28;20219;-77
2022/08/20 06:34:14;;;;;;;17.00;9.27;;;23.50;99.90;;;;;;5071658;28;20338;-77
2022/08/20 06:36:41;;;;;;;13.13;8.93;;;23.50;99.90;;;;;;5055868;28;20205;-77
2022/08/20 06:39:07;;;;;;;13.73;9.20;;;23.60;99.90;;;;;;5054445;28;20264;-80
2022/08/20 06:41:34;;;;;;;16.90;9.90;;;23.60;99.90;;;;;;5037393;28;20298;-79
2022/08/20 06:44:05;;;;;;;13.73;9.77;;;23.60;99.90;;;;;;5037641;28;20205;-78
2022/08/20 06:46:36;;;;;;;32.50;12.27;;;23.50;99.90;;;;;;5071087;28;20298;-79
2022/08/20 06:49:05;;;;;;;16.13;9.75;;;23.60;99.90;;;;;;5054567;28;20257;-77
2022/08/20 06:51:33;;;;;;;16.43;10.47;;;23.60;99.90;;;;;;5054537;28;20191;-78
2022/08/20 06:54:00;;;;;;;20.52;10.50;;;23.70;99.90;;;;;;5073311;28;20206;-76
2022/08/20 06:56:27;;;;;;;20.77;10.57;;;23.70;99.90;;;;;;5070456;28;20199;-77
2022/08/20 06:58:54;;;;;;;16.13;10.13;;;23.70;99.90;;;;;;5037054;28;20230;-77
2022/08/20 07:01:21;;;;;;;16.73;9.70;;;23.80;99.90;;;;;;5036889;28;20199;-81
2022/08/20 07:03:49;;;;;;;13.73;9.50;;;23.90;99.90;;;;;;5037407;28;20203;-76
2022/08/20 07:06:23;;;;;;;16.95;9.80;;;23.90;99.90;;;;;;5069318;28;20195;-79
2022/08/20 07:08:50;;;;;;;12.63;9.67;;;24.00;99.90;;;;;;5056046;28;20195;-77
2022/08/20 07:11:19;;;;;;;18.30;9.48;;;24.10;99.90;;;;;;5055084;28;20307;-78
2022/08/20 07:13:54;;;;;;;18.80;9.48;;;24.10;99.90;;;;;;5021685;28;20297;-76
2022/08/20 07:16:21;;;;;;;17.17;9.65;;;24.10;99.90;;;;;;5070232;28;20199;-77
2022/08/20 07:18:48;;;;;;;15.73;9.20;;;24.10;99.90;;;;;;5036705;28;20195;-74
2022/08/20 07:21:16;;;;;;;20.88;10.18;;;24.10;99.90;;;;;;5036765;28;20632;-78
2022/08/20 07:23:43;;;;;;;19.80;9.82;;;24.10;99.90;;;;;;5070019;28;20195;-76
2022/08/20 07:26:11;;;;;;;14.25;9.55;;;24.20;99.90;;;;;;5036606;28;20263;-73
2022/08/20 07:28:40;;;;;;;13.77;9.50;;;24.30;99.90;;;;;;5053082;28;20191;-73
2022/08/20 07:33:56;;;;;;;19.10;9.82;;;24.50;99.90;;;;;;5069572;28;20289;-72
2022/08/20 07:36:25;;;;;;;15.90;8.70;;;24.60;99.90;;;;;;5052937;28;20567;-74
2022/08/20 07:38:53;;;;;;;18.17;9.77;;;24.60;99.90;;;;;;5036557;28;20203;-77
2022/08/20 07:41:20;;;;;;;18.75;9.55;;;24.70;99.90;;;;;;5069684;28;20186;-73
2022/08/20 07:43:47;;;;;;;13.05;9.48;;;24.80;99.90;;;;;;5069392;28;20330;-74
2022/08/20 07:46:17;;;;;;;12.40;9.70;;;24.90;99.90;;;;;;5052596;28;20643;-75
2022/08/20 07:48:48;;;;;;;14.18;9.07;;;24.90;99.90;;;;;;5069400;28;20190;-72
2022/08/20 07:51:21;;;;;;;13.30;9.32;;;25.10;99.90;;;;;;5052969;28;20227;-74
2022/08/20 07:53:50;;;;;;;14.75;9.40;;;25.20;99.90;;;;;;5036221;28;20596;-72
2022/08/20 07:56:20;;;;;;;13.15;9.38;;;25.30;99.90;;;;;;5053804;28;20277;-72
2022/08/20 07:58:54;;;;;;;20.25;10.63;;;25.60;99.90;;;;;;5053737;28;20183;-75
2022/08/20 08:01:31;;;;;;;15.98;9.93;;;25.80;99.90;;;;;;5036131;28;20222;-78
2022/08/20 08:03:59;;;;;;;17.48;10.07;;;25.90;99.90;;;;;;5053172;28;20199;-81
2022/08/20 08:06:28;;;;;;;13.75;9.32;;;25.90;99.90;;;;;;5037853;28;20285;-72
2022/08/20 08:09:08;;;;;;;15.65;9.52;;;26.10;99.90;;;;;;5054014;28;20195;-73
2022/08/20 08:17:01;;;;;;;13.52;8.73;;;28.00;99.90;;;;;;5028915;22;20635;-83
2022/08/20 08:19:37;;;;;;;11.57;8.43;;;28.60;99.90;;;;;;4996070;28;20279;-75
2022/08/20 08:22:06;;;;;;;13.82;8.25;;;29.20;99.90;;;;;;4996058;28;20727;-73
2022/08/20 08:24:33;;;;;;;16.33;8.35;;;29.30;99.90;;;;;;4979732;28;20200;-74
2022/08/20 08:27:00;;;;;;;15.82;8.63;;;29.40;99.90;;;;;;5013416;28;20284;-73
2022/08/20 08:29:28;;;;;;;14.93;8.25;;;29.80;99.90;;;;;;4996166;28;20558;-75
2022/08/20 08:31:55;;;;;;;17.17;8.18;;;30.00;99.90;;;;;;4995548;28;20315;-73
2022/08/20 08:34:25;;;;;;;14.73;8.20;;;30.20;99.90;;;;;;5013516;28;20238;-73
2022/08/20 08:36:51;;;;;;;17.83;8.13;;;30.30;99.90;;;;;;4996244;28;20633;-73
2022/08/20 08:39:19;;;;;;;15.88;7.82;;;30.10;99.90;;;;;;4996044;28;20204;-73
2022/08/20 08:41:51;;;;;;;12.77;7.68;;;30.30;99.90;;;;;;4995253;28;20202;-73
2022/08/20 08:44:28;;;;;;;12.15;7.72;;;30.30;99.90;;;;;;5013200;28;20198;-74
2022/08/20 08:47:12;;;;;;;12.57;7.82;;;30.60;99.90;;;;;;4995911;28;20283;-73
2022/08/20 08:49:40;;;;;;;11.77;7.72;;;30.50;99.90;;;;;;4995754;28;20564;-75
2022/08/20 08:52:24;;;;;;;12.60;7.43;;;30.40;99.90;;;;;;4995522;28;20306;-71
2022/08/20 08:54:55;;;;;;;13.85;7.82;;;30.20;99.90;;;;;;4995832;28;20212;-80
2022/08/20 08:57:24;;;;;;;16.05;7.28;;;30.10;99.90;;;;;;4995810;28;20588;-75
2022/08/20 08:59:58;;;;;;;14.13;8.25;;;30.10;99.90;;;;;;4995565;28;20294;-74
2022/08/20 09:02:32;;;;;;;13.07;7.38;;;30.30;99.90;;;;;;4995302;28;20791;-76
2022/08/20 09:05:02;;;;;;;15.25;7.32;;;30.20;99.90;;;;;;4995384;28;20202;-74
2022/08/20 09:07:33;;;;;;;14.27;8.25;;;30.10;99.90;;;;;;5012952;28;20196;-75
2022/08/20 09:10:01;;;;;;;12.25;7.80;;;29.90;99.90;;;;;;4995896;28;20204;-74
2022/08/20 09:12:28;;;;;;;12.68;7.70;;;30.10;99.90;;;;;;5012786;28;20199;-75
2022/08/20 09:14:55;;;;;;;10.73;7.50;;;30.10;99.90;;;;;;4995413;28;20728;-77
2022/08/20 09:17:22;;;;;;;15.10;7.45;;;30.40;99.90;;;;;;4995351;28;20318;-74
2022/08/20 09:19:51;;;;;;;14.27;7.65;;;30.40;99.90;;;;;;4995607;28;20200;-75
2022/08/20 09:22:24;;;;;;;15.85;7.70;;;30.60;99.90;;;;;;4996011;28;20716;-77
2022/08/20 09:24:52;;;;;;;13.27;7.10;;;30.50;99.90;;;;;;4995249;28;20200;-79
2022/08/20 09:27:19;;;;;;;13.20;7.13;;;30.40;99.90;;;;;;5013482;28;20271;-80
2022/08/20 09:29:46;;;;;;;16.35;7.20;;;30.30;99.90;;;;;;5012908;28;20254;-79
2022/08/20 09:32:28;;;;;;;11.32;7.25;;;30.30;99.90;;;;;;4994891;28;20227;-83
2022/08/20 09:34:55;;;;;;;15.82;7.93;;;30.50;99.90;;;;;;4995459;28;20210;-78
2022/08/20 09:37:28;;;;;;;14.38;7.30;;;30.90;99.90;;;;;;4979592;28;20204;-79
2022/08/20 09:40:00;;;;;;;12.15;7.13;;;31.10;99.90;;;;;;4998229;28;20270;-79
2022/08/20 09:42:31;;;;;;;11.32;6.35;;;31.50;99.90;;;;;;4996927;28;20622;-80
2022/08/20 09:45:05;;;;;;;10.85;6.40;;;31.70;99.90;;;;;;4995331;28;20653;-82
2022/08/20 09:47:37;;;;;;;10.43;6.20;;;32.00;99.90;;;;;;4996033;28;20212;-83
2022/08/20 09:50:20;;;;;;;11.32;6.30;;;32.20;99.90;;;;;;4995537;28;20204;-80
2022/08/20 09:52:51;;;;;;;10.65;6.18;;;32.40;99.90;;;;;;4995925;28;20200;-76
2022/08/20 09:55:35;;;;;;;11.10;6.43;;;32.50;99.90;;;;;;4998872;28;20207;-80
2022/08/20 09:58:10;;;;;;;9.18;6.13;;;32.60;99.90;;;;;;4998627;28;20288;-77
2022/08/20 10:00:38;;;;;;;10.00;5.80;;;32.90;99.90;;;;;;4998515;28;20200;-76
2022/08/20 10:03:05;;;;;;;10.00;5.93;;;33.20;99.90;;;;;;4998648;28;20234;-77
2022/08/20 10:05:32;;;;;;;13.10;6.20;;;33.40;99.90;;;;;;4998932;28;20287;-78
2022/08/20 10:08:03;;;;;;;11.18;5.85;;;33.80;99.90;;;;;;4998606;28;20204;-77
2022/08/20 10:10:30;;;;;;;10.18;6.07;;;33.80;99.90;;;;;;4998530;28;20608;-76
2022/08/20 10:12:57;;;;;;;12.38;5.60;;;34.10;99.90;;;;;;4999296;28;20193;-77
2022/08/20 10:15:24;;;;;;;9.95;5.25;;;34.00;99.90;;;;;;4998540;28;20301;-79
2022/08/20 10:17:50;;;;;;;8.25;5.85;;;34.20;99.90;;;;;;4998379;28;20204;-77
2022/08/20 10:20:18;;;;;;;10.95;5.60;;;34.10;99.90;;;;;;5016212;28;20247;-76
2022/08/20 10:22:45;;;;;;;12.80;6.18;;;34.40;99.90;;;;;;5015934;28;20259;-79
2022/08/20 10:25:12;;;;;;;8.18;5.00;;;34.50;99.50;;;;;;4998355;28;20227;-77
2022/08/20 10:27:39;;;;;;;10.50;5.53;;;34.40;98.90;;;;;;4998631;28;20200;-76
2022/08/20 10:30:07;;;;;;;10.13;5.78;;;34.40;98.80;;;;;;4997282;28;20192;-73
2022/08/20 10:32:33;;;;;;;12.38;6.10;;;34.30;98.90;;;;;;4997800;28;20222;-73
2022/08/20 10:35:01;;;;;;;9.13;5.63;;;34.60;99.10;;;;;;4998299;28;20287;-73
2022/08/20 10:37:28;;;;;;;12.90;5.70;;;34.80;98.20;;;;;;4998616;28;20290;-74
2022/08/20 10:39:55;;;;;;;9.15;5.88;;;34.80;97.10;;;;;;4998389;28;20210;-73
2022/08/20 10:42:22;;;;;;;8.93;5.38;;;34.50;97.10;;;;;;4998367;28;20291;-74
2022/08/20 10:44:49;;;;;;;12.45;6.00;;;34.70;97.20;;;;;;4997608;28;20250;-75
2022/08/20 10:47:31;;;;;;;6.93;5.22;;;34.80;96.80;;;;;;4998789;28;20646;-74
2022/08/20 10:50:01;;;;;;;13.48;5.50;;;34.80;96.40;;;;;;4997966;28;20295;-73
2022/08/20 10:52:28;;;;;;;9.30;5.20;;;34.90;95.80;;;;;;5015260;28;20192;-73
2022/08/20 10:54:55;;;;;;;10.75;5.60;;;35.00;94.80;;;;;;5015129;28;20192;-73
2022/08/20 10:57:27;;;;;;;7.93;5.18;;;35.20;94.90;;;;;;4997546;28;20214;-73
2022/08/20 10:59:56;;;;;;;11.68;5.55;;;35.40;93.90;;;;;;4997124;28;20222;-74
2022/08/20 11:02:25;;;;;;;9.95;5.55;;;35.50;93.40;;;;;;4996344;28;20204;-75
2022/08/20 11:04:52;;;;;;;11.65;5.45;;;35.30;92.70;;;;;;4996809;28;20259;-75
2022/08/20 11:07:27;;;;;;;10.65;5.20;;;35.40;92.40;;;;;;5015074;28;20588;-74
2022/08/20 11:10:15;;;;;;;8.88;5.40;;;35.40;91.80;;;;;;5015172;28;20346;-75
2022/08/20 11:12:42;;;;;;;9.63;5.80;;;35.30;91.70;;;;;;4997352;28;20200;-74
2022/08/20 11:15:13;;;;;;;9.57;5.50;;;35.30;91.20;;;;;;4997320;28;20291;-73
2022/08/20 11:17:42;;;;;;;11.35;5.38;;;35.30;91.30;;;;;;4997307;28;20296;-73
2022/08/20 11:20:11;;;;;;;11.45;5.50;;;35.60;91.20;;;;;;4997280;28;20203;-74
2022/08/20 11:22:38;;;;;;;9.25;5.68;;;35.90;90.20;;;;;;4996607;28;20652;-73
2022/08/20 11:25:05;;;;;;;13.70;5.50;;;36.10;89.10;;;;;;5014821;28;20647;-73
2022/08/20 11:27:37;;;;;;;11.90;5.78;;;35.80;87.90;;;;;;4997149;28;20200;-73
2022/08/20 11:30:07;;;;;;;8.80;5.55;;;35.80;88.20;;;;;;4997104;28;20653;-73
2022/08/20 11:32:35;;;;;;;8.85;5.60;;;36.00;87.90;;;;;;4996852;28;20270;-73
2022/08/20 11:35:02;;;;;;;8.32;5.60;;;36.00;87.30;;;;;;4996903;28;20204;-74
2022/08/20 11:37:51;;;;;;;13.30;5.55;;;35.80;86.70;;;;;;5014716;28;20216;-73
2022/08/20 11:40:20;;;;;;;8.10;4.97;;;36.00;87.00;;;;;;5014701;28;20713;-72
2022/08/20 11:42:47;;;;;;;11.38;5.05;;;36.40;85.40;;;;;;4996756;28;20616;-73
2022/08/20 11:45:34;;;;;;;11.07;5.22;;;36.60;84.70;;;;;;5014289;28;20211;-74
2022/08/20 11:48:03;;;;;;;9.80;5.30;;;36.80;83.70;;;;;;4996759;28;20207;-75
2022/08/20 11:50:31;;;;;;;13.57;5.40;;;37.10;82.00;;;;;;4996798;28;20204;-73
2022/08/20 11:52:58;;;;;;;23.08;6.85;;;37.30;80.90;;;;;;4996859;28;20192;-76
2022/08/20 11:55:27;;;;;;;9.77;5.07;;;37.30;80.20;;;;;;4997249;28;20208;-75
2022/08/20 11:57:57;;;;;;;8.52;5.07;;;37.10;78.60;;;;;;4996571;28;20203;-73
2022/08/20 12:00:27;;;;;;;10.45;5.35;;;36.80;79.90;;;;;;4996634;28;20204;-74
2022/08/20 12:03:00;;;;;;;7.68;5.22;;;36.40;81.60;;;;;;4996470;28;20212;-73
2022/08/20 12:05:28;;;;;;;11.32;5.07;;;36.70;80.80;;;;;;4996789;28;20195;-75
2022/08/20 12:07:58;;;;;;;13.30;5.63;;;36.80;78.70;;;;;;5014023;28;20227;-73
2022/08/20 12:10:27;;;;;;;7.85;5.40;;;37.10;79.10;;;;;;5013951;28;20259;-74
2022/08/20 12:12:54;;;;;;;8.93;5.60;;;37.10;77.80;;;;;;4996232;28;20199;-78
2022/08/20 12:15:22;;;;;;;7.63;5.10;;;37.10;77.90;;;;;;4995508;28;21004;-74
2022/08/20 12:17:49;;;;;;;8.05;4.80;;;37.10;77.50;;;;;;5013783;28;20598;-74
2022/08/20 12:20:16;;;;;;;9.63;5.20;;;37.10;76.60;;;;;;5013735;28;20197;-74
2022/08/20 12:22:44;;;;;;;11.18;5.35;;;37.10;75.10;;;;;;4995634;28;20204;-73
2022/08/20 12:25:11;;;;;;;9.13;5.03;;;37.20;76.70;;;;;;4996241;28;20568;-73
2022/08/20 12:27:39;;;;;;;10.50;4.47;;;37.10;74.20;;;;;;4996104;28;20287;-73
2022/08/20 12:30:12;;;;;;;8.35;5.10;;;37.10;73.70;;;;;;4996397;28;20228;-73
2022/08/20 12:32:41;;;;;;;10.27;5.32;;;37.10;72.80;;;;;;4995688;28;20320;-73
2022/08/20 12:35:09;;;;;;;9.48;5.28;;;37.10;74.60;;;;;;4996194;28;20206;-75
2022/08/20 12:37:36;;;;;;;11.65;5.47;;;37.20;74.80;;;;;;4995829;28;20203;-73
2022/08/20 12:40:08;;;;;;;8.70;5.15;;;37.30;75.40;;;;;;4995750;28;20602;-72
2022/08/20 12:42:35;;;;;;;11.95;4.75;;;37.60;75.00;;;;;;5007200;28;20409;-73
2022/08/20 12:45:03;;;;;;;7.53;4.68;;;37.70;72.50;;;;;;4976193;28;20227;-73
2022/08/20 12:47:33;;;;;;;8.63;4.70;;;37.70;70.60;;;;;;4977571;28;20287;-73
2022/08/20 12:50:04;;;;;;;8.85;5.18;;;37.60;70.30;;;;;;4995530;28;20645;-73
2022/08/20 12:52:31;;;;;;;9.30;5.22;;;37.70;70.80;;;;;;4995568;28;20295;-74
2022/08/20 12:54:59;;;;;;;11.73;4.85;;;37.80;71.50;;;;;;4995615;28;20291;-72
2022/08/20 12:57:34;;;;;;;6.50;4.85;;;37.80;70.40;;;;;;5012767;28;20219;-73
2022/08/20 13:00:13;;;;;;;12.38;4.60;;;38.00;70.10;;;;;;4994402;28;20204;-75
2022/08/20 13:02:41;;;;;;;9.25;4.88;;;37.80;71.80;;;;;;4993568;28;20200;-74
2022/08/20 13:05:10;;;;;;;8.40;4.80;;;37.80;71.10;;;;;;5013070;28;20696;-77
2022/08/20 13:07:37;;;;;;;14.38;5.30;;;37.90;71.00;;;;;;4995970;28;20200;-74